Location:  
MeteoStar


Sort by weather type Sort by elevation Sort by visibility Sort from west to east north Sort from north to south Alphabetically Sort from strongest wind speed Sort from lowest to highest pressure Sort from highest to lowest dew point temperature Sort coolest temperatures to warmest Sort warm temperatures to coolest
 Metric

Current Observations for Iran, Islamic Republic of

Abadan21:00ZNot Avail.90 681000.1S 2 939
Abadeh21:00ZClear61 1991006CALM616574
Ahwaz21:00ZNot Avail.97 637999.0SW 4 9865
Arak21:00ZClear69 3071004.7NW 2 695643
Bam21:00ZClear79 2471002.9W 6 793500
Bandar Lengeh21:00ZMist93 862.51000.1SW 6 12545
Bandarabbass21:00ZNot Avail.88 6841001.4NNE 6 9132
Birjand21:00ZNot Avail.57 1871011.6CALM574891
Bojnourd21:00ZNot Avail.61 3491014.6CALM613523
Bushehr Civ / Afb 20:52ZNot Avail.90 7741000.7SSE 4 10262
Chahbahar21:00ZMist85 8041001.4SE 4 10019
Esfahan21:00ZNot Avail.72 289S 4 725216
Fasa20:50ZNot Avail.72 2191005.4CALM724537
Gach Saran Du Gunbadan21:00ZNot Avail.86 3271004.2CALM832421
Ghazvin21:00ZClear65 49121006.7CALM654192
Gorgan21:00ZNot Avail.72 6371011.6SSW 8 72508
Iranshahr21:00ZNot Avail.88 2141003.0ENE 4 841938
Jask20:50ZClear90 8241000.1E 6 1119
Kerman20:50ZNot Avail.70 214NNW 10 705734
Kermanshah20:51ZNot Avail.75 232.51007.0CALM754330
Khoy21:00ZClear73 4671005.9NW 6 733631
Mashhad21:00ZNot Avail.68 2591013.9S 8 683244
Masjed-Soleyman21:00ZClear96 497999.7S 2 921220
Omidieh21:00ZClear91 4771001.4SE 4 8895
Orumieh20:50ZMostly Cloudy75 4571009.9NE 4 754255
Ramsar20:50ZNot Avail.77 7071010.2CALM77-75
Rasht21:00ZMist75 732.51012.1W 4 75-22
Sabzevar21:00ZClear74 2591009ENE 12 743087
Sanandaj20:55ZNot Avail.81 2891008.2N 6 794504
Semnan21:00ZClear79 3991005.5S 2 793841
Shahre-Kord20:50ZNot Avail.57 219WNW 4 576817
Shiraz20:50ZNot Avail.73 3091008.7CALM734875
Tabas21:00ZClear82 4071004.9NNE 6 802329
Tabriz21:00ZNot Avail.75 4371012.2ESE 10 754484
Tehran-Mehrabad21:00ZClear77 4171010.2NNE 4 773950
Torbat-Heydarieh21:00ZClear62 2391007.7E 4 624373
Yazd20:50ZNot Avail.77 2771011.3SW 6 774061
Zabol21:00ZNot Avail.79 3471004.1NW 8 791604
Zahedan21:00ZNot Avail.68 2141009.2CALM684494
Zanjan21:00ZClear69 4471005.5ESE 4 695456

Atlantic
Tropical Watch